Machida, Japan
Current Conditions -  °F | °C
As of 4:36 PM on Wednesday 22 Oct 2014 (Local Time) from RJTF Reporting Station
Rain Showers Rain Showers  
Wind Chill: 57°   Ceiling: 1500
Heat Index: 57°   Visibility: 3mi
Dew Point: 52°   Wind: 5mph
Humidity: 82%   Direction: 360°N
Pressure: 29.91"   Gusts: NA
Location:  35.56°N, 139.43°E
Report Text: RJTF 220736Z 36004KT 320V030 5000 SHRA BR FEW008 BKN015 BKN020 14/11 Q1013 RMK 1ST008 5CU015 6CU020 A2994
Loading
Personal Weather Stations






























Interactive Weather Map
Tropical Storm Tracking
New forecast layout! Learn more

10-Day Weather Forecast

Advertisements
Track Severe Weather on mobile